Waterloo Airport
CYKF : now visible

Aeroporto :











RITROVATECI SU...

 
LOGIN :

Iscrizione | Disclaimer

   EN    FR    IT 

 









Sommario :    VFR   VFR Marginale   IFR   IFR Intensivo   IFR Molto Intensivo
Visibilità : 
Base nubi : 
>= 8 km
>= 3000ft
5 / 8 km
1000 / 3000 ft
1500m / 5 km
500 / 1000 ft
800 / 1500m
200 / 500 ft
< 800m
< 200 ft
Simboli :   Temporali  Nebbia  Neve Forte  Precipitazioni Forti  Vento > 20 kt






- Altitudine del aeroporto : 1054 ft
- Codice IATA : YKF


CYKF - Waterloo

ULTIMO METAR :
  • 051800Z AUTO 32010KT 9SM OVC014 M02/M04 A3000 RMK SLP171

METARs OBSOLETI :
  • 051700Z AUTO 32009G16KT 9SM OVC014 M01/M04 A3000 RMK SLP174
  • 051600Z AUTO 32010G16KT 9SM OVC014 M01/M04 A3001 RMK SLP177

TAF TAF CYKF
Valido dal 05 a 14 ore il 06 a 02 ore UTC


051338Z 0514/0602 34010KT P6SM OVC015
TEMPO 0514/0517 OVC025
PROB30 0514/0515 BKN008
FM051700 34015KT P6SM OVC025
TEMPO 0517/0519 OVC020
FM051900 34015KT P6SM BKN030
TEMPO 0519/0524 BKN020
FM060000 33010KT P6SM OVC015
TEMPO 0600/0602 4SM BR BKN008 OVC010 RMK FCST BASED ON AUTO OBS. NXT FCST BY 052000Z
FIR CZYZ / America del Nord



MetMap, La meteo Aeronautica in un colpo d'occhio ! - Copyright ORBIFLY Dicembre 2007 - Disclaimer

ORBIFLY MET'MAP TEAM :

Programmazione e sviluppo : Alexandra Zaïnal
Concezione : Baudouin d'Aumeries
Aiuto per la programmazione : Marc-Olivier Méhu
Supporto tecnico e logistico : Manuel Goepfert
Aiuto per la traduzione : Arnaldo La Scala

Contatto : metmap@orbifly.com




FONTI E CREDITI :

   NOAA       Earth
Advisory